sensor_id;sensor_type;location;lat;lon;timestamp;P1;durP1;ratioP1;P2;durP2;ratioP2
36827;SDS011;22766;48.042;11.192;2023-05-02T00:00:36;2.30;;;1.25;;
36827;SDS011;22766;48.042;11.192;2023-05-02T00:03:04;2.10;;;1.42;;
36827;SDS011;22766;48.042;11.192;2023-05-02T00:05:33;2.47;;;1.38;;
36827;SDS011;22766;48.042;11.192;2023-05-02T00:07:59;3.22;;;1.73;;
36827;SDS011;22766;48.042;11.192;2023-05-02T00:10:26;1.25;;;0.98;;
36827;SDS011;22766;48.042;11.192;2023-05-02T00:12:53;3.38;;;1.40;;
36827;SDS011;22766;48.042;11.192;2023-05-02T00:15:20;3.30;;;1.30;;
36827;SDS011;22766;48.042;11.192;2023-05-02T00:17:46;1.77;;;1.20;;
36827;SDS011;22766;48.042;11.192;2023-05-02T00:20:13;2.50;;;1.33;;
36827;SDS011;22766;48.042;11.192;2023-05-02T00:22:40;1.75;;;1.13;;
36827;SDS011;22766;48.042;11.192;2023-05-02T00:25:06;1.50;;;1.20;;
36827;SDS011;22766;48.042;11.192;2023-05-02T00:27:34;2.63;;;1.40;;
36827;SDS011;22766;48.042;11.192;2023-05-02T00:30:00;2.97;;;1.10;;
36827;SDS011;22766;48.042;11.192;2023-05-02T00:32:28;4.82;;;1.92;;
36827;SDS011;22766;48.042;11.192;2023-05-02T00:34:54;3.35;;;1.48;;
36827;SDS011;22766;48.042;11.192;2023-05-02T00:37:24;2.00;;;1.10;;
36827;SDS011;22766;48.042;11.192;2023-05-02T00:39:51;6.00;;;1.60;;
36827;SDS011;22766;48.042;11.192;2023-05-02T00:42:18;2.88;;;1.42;;
36827;SDS011;22766;48.042;11.192;2023-05-02T00:44:45;2.58;;;1.27;;
36827;SDS011;22766;48.042;11.192;2023-05-02T00:47:13;1.75;;;1.25;;
36827;SDS011;22766;48.042;11.192;2023-05-02T00:49:40;1.75;;;1.10;;
36827;SDS011;22766;48.042;11.192;2023-05-02T00:52:07;2.05;;;1.00;;
36827;SDS011;22766;48.042;11.192;2023-05-02T00:54:36;2.38;;;1.38;;
36827;SDS011;22766;48.042;11.192;2023-05-02T00:57:04;3.45;;;1.67;;
36827;SDS011;22766;48.042;11.192;2023-05-02T00:59:33;1.70;;;1.23;;
36827;SDS011;22766;48.042;11.192;2023-05-02T01:02:04;2.03;;;1.20;;
36827;SDS011;22766;48.042;11.192;2023-05-02T01:05:08;1.90;;;1.10;;
36827;SDS011;22766;48.042;11.192;2023-05-02T01:13:46;1.73;;;1.08;;
36827;SDS011;22766;48.042;11.192;2023-05-02T01:16:14;1.40;;;1.05;;
36827;SDS011;22766;48.042;11.192;2023-05-02T01:18:44;1.20;;;1.10;;
36827;SDS011;22766;48.042;11.192;2023-05-02T01:21:13;1.45;;;1.02;;
36827;SDS011;22766;48.042;11.192;2023-05-02T01:26:35;2.35;;;0.85;;
36827;SDS011;22766;48.042;11.192;2023-05-02T01:29:32;1.40;;;0.90;;
36827;SDS011;22766;48.042;11.192;2023-05-02T01:32:00;1.20;;;1.10;;
36827;SDS011;22766;48.042;11.192;2023-05-02T01:34:28;1.95;;;1.42;;
36827;SDS011;22766;48.042;11.192;2023-05-02T01:36:58;1.42;;;0.88;;
36827;SDS011;22766;48.042;11.192;2023-05-02T01:39:27;2.28;;;1.20;;
36827;SDS011;22766;48.042;11.192;2023-05-02T01:41:55;1.35;;;1.10;;
36827;SDS011;22766;48.042;11.192;2023-05-02T01:44:24;1.52;;;0.98;;
36827;SDS011;22766;48.042;11.192;2023-05-02T01:46:54;3.75;;;1.30;;
36827;SDS011;22766;48.042;11.192;2023-05-02T01:49:22;1.48;;;0.85;;
36827;SDS011;22766;48.042;11.192;2023-05-02T01:51:50;1.92;;;1.10;;
36827;SDS011;22766;48.042;11.192;2023-05-02T01:54:19;2.83;;;1.10;;
36827;SDS011;22766;48.042;11.192;2023-05-02T01:56:48;1.70;;;1.20;;
36827;SDS011;22766;48.042;11.192;2023-05-02T01:59:18;2.35;;;1.58;;
36827;SDS011;22766;48.042;11.192;2023-05-02T02:01:49;1.55;;;1.08;;
36827;SDS011;22766;48.042;11.192;2023-05-02T02:04:18;1.88;;;1.33;;
36827;SDS011;22766;48.042;11.192;2023-05-02T02:06:47;2.17;;;1.27;;
36827;SDS011;22766;48.042;11.192;2023-05-02T02:09:19;1.83;;;1.20;;
36827;SDS011;22766;48.042;11.192;2023-05-02T02:11:48;2.67;;;1.30;;
36827;SDS011;22766;48.042;11.192;2023-05-02T02:14:20;1.38;;;0.90;;
36827;SDS011;22766;48.042;11.192;2023-05-02T02:16:52;2.10;;;1.40;;
36827;SDS011;22766;48.042;11.192;2023-05-02T02:19:22;2.75;;;1.52;;
36827;SDS011;22766;48.042;11.192;2023-05-02T02:21:50;1.48;;;1.15;;
36827;SDS011;22766;48.042;11.192;2023-05-02T02:24:19;2.33;;;1.02;;
36827;SDS011;22766;48.042;11.192;2023-05-02T02:26:48;1.83;;;1.23;;
36827;SDS011;22766;48.042;11.192;2023-05-02T02:29:14;1.92;;;1.33;;
36827;SDS011;22766;48.042;11.192;2023-05-02T02:31:41;2.35;;;1.20;;
36827;SDS011;22766;48.042;11.192;2023-05-02T02:34:08;2.13;;;1.17;;
36827;SDS011;22766;48.042;11.192;2023-05-02T02:36:38;1.67;;;1.13;;
36827;SDS011;22766;48.042;11.192;2023-05-02T02:47:49;1.60;;;1.30;;
36827;SDS011;22766;48.042;11.192;2023-05-02T02:50:29;1.65;;;1.13;;
36827;SDS011;22766;48.042;11.192;2023-05-02T02:53:00;1.88;;;1.05;;
36827;SDS011;22766;48.042;11.192;2023-05-02T02:55:38;2.53;;;1.20;;
36827;SDS011;22766;48.042;11.192;2023-05-02T03:01:02;1.98;;;1.00;;
36827;SDS011;22766;48.042;11.192;2023-05-02T03:03:31;1.52;;;1.02;;
36827;SDS011;22766;48.042;11.192;2023-05-02T03:05:59;2.13;;;1.15;;
36827;SDS011;22766;48.042;11.192;2023-05-02T03:08:37;2.10;;;0.95;;
36827;SDS011;22766;48.042;11.192;2023-05-02T03:11:04;1.70;;;1.20;;
36827;SDS011;22766;48.042;11.192;2023-05-02T03:13:31;2.67;;;1.27;;
36827;SDS011;22766;48.042;11.192;2023-05-02T03:18:28;2.75;;;1.10;;
36827;SDS011;22766;48.042;11.192;2023-05-02T03:20:54;2.17;;;1.30;;
36827;SDS011;22766;48.042;11.192;2023-05-02T03:23:22;1.50;;;1.17;;
36827;SDS011;22766;48.042;11.192;2023-05-02T03:25:50;1.33;;;0.98;;
36827;SDS011;22766;48.042;11.192;2023-05-02T03:28:21;1.42;;;1.02;;
36827;SDS011;22766;48.042;11.192;2023-05-02T03:30:49;2.22;;;1.25;;
36827;SDS011;22766;48.042;11.192;2023-05-02T03:33:16;1.77;;;0.90;;
36827;SDS011;22766;48.042;11.192;2023-05-02T03:35:45;1.58;;;1.00;;
36827;SDS011;22766;48.042;11.192;2023-05-02T03:38:12;3.50;;;1.05;;
36827;SDS011;22766;48.042;11.192;2023-05-02T03:40:38;1.70;;;1.10;;
36827;SDS011;22766;48.042;11.192;2023-05-02T03:43:12;1.73;;;1.10;;
36827;SDS011;22766;48.042;11.192;2023-05-02T03:45:39;1.80;;;1.13;;
36827;SDS011;22766;48.042;11.192;2023-05-02T03:48:06;2.78;;;0.95;;
36827;SDS011;22766;48.042;11.192;2023-05-02T03:50:33;2.35;;;1.27;;
36827;SDS011;22766;48.042;11.192;2023-05-02T03:52:59;1.35;;;1.00;;
36827;SDS011;22766;48.042;11.192;2023-05-02T03:55:39;1.50;;;0.88;;
36827;SDS011;22766;48.042;11.192;2023-05-02T03:58:10;2.42;;;0.90;;
36827;SDS011;22766;48.042;11.192;2023-05-02T04:00:37;1.40;;;1.00;;
36827;SDS011;22766;48.042;11.192;2023-05-02T04:03:06;2.40;;;1.10;;
36827;SDS011;22766;48.042;11.192;2023-05-02T04:05:37;2.50;;;1.17;;
36827;SDS011;22766;48.042;11.192;2023-05-02T04:08:04;1.20;;;1.00;;
36827;SDS011;22766;48.042;11.192;2023-05-02T04:10:31;1.67;;;1.08;;
36827;SDS011;22766;48.042;11.192;2023-05-02T04:13:00;1.40;;;1.02;;
36827;SDS011;22766;48.042;11.192;2023-05-02T04:15:32;1.60;;;1.17;;
36827;SDS011;22766;48.042;11.192;2023-05-02T04:17:59;1.75;;;1.05;;
36827;SDS011;22766;48.042;11.192;2023-05-02T04:20:27;2.22;;;1.15;;
36827;SDS011;22766;48.042;11.192;2023-05-02T04:22:54;2.65;;;1.92;;
36827;SDS011;22766;48.042;11.192;2023-05-02T04:25:22;4.35;;;1.88;;
36827;SDS011;22766;48.042;11.192;2023-05-02T04:27:50;4.70;;;2.17;;
36827;SDS011;22766;48.042;11.192;2023-05-02T04:30:20;8.02;;;3.50;;
36827;SDS011;22766;48.042;11.192;2023-05-02T04:32:55;6.97;;;3.10;;
36827;SDS011;22766;48.042;11.192;2023-05-02T04:35:24;7.78;;;3.38;;
36827;SDS011;22766;48.042;11.192;2023-05-02T04:37:52;6.47;;;2.60;;
36827;SDS011;22766;48.042;11.192;2023-05-02T04:40:19;5.55;;;2.55;;
36827;SDS011;22766;48.042;11.192;2023-05-02T04:42:50;6.45;;;2.30;;
36827;SDS011;22766;48.042;11.192;2023-05-02T04:45:22;4.43;;;2.20;;
36827;SDS011;22766;48.042;11.192;2023-05-02T04:47:49;4.30;;;2.03;;
36827;SDS011;22766;48.042;11.192;2023-05-02T04:50:16;6.53;;;2.55;;
36827;SDS011;22766;48.042;11.192;2023-05-02T04:52:43;5.68;;;2.30;;
36827;SDS011;22766;48.042;11.192;2023-05-02T04:55:10;2.17;;;1.40;;
36827;SDS011;22766;48.042;11.192;2023-05-02T04:57:36;1.27;;;1.10;;
36827;SDS011;22766;48.042;11.192;2023-05-02T05:00:07;1.27;;;1.00;;
36827;SDS011;22766;48.042;11.192;2023-05-02T05:02:34;1.70;;;1.27;;
36827;SDS011;22766;48.042;11.192;2023-05-02T05:05:01;0.95;;;0.82;;
36827;SDS011;22766;48.042;11.192;2023-05-02T05:07:28;1.67;;;1.20;;
36827;SDS011;22766;48.042;11.192;2023-05-02T05:09:55;2.60;;;1.33;;
36827;SDS011;22766;48.042;11.192;2023-05-02T05:12:25;2.80;;;1.33;;
36827;SDS011;22766;48.042;11.192;2023-05-02T05:14:52;1.75;;;1.13;;
36827;SDS011;22766;48.042;11.192;2023-05-02T05:17:21;1.80;;;1.02;;
36827;SDS011;22766;48.042;11.192;2023-05-02T05:19:48;1.75;;;1.15;;
36827;SDS011;22766;48.042;11.192;2023-05-02T05:22:15;2.03;;;1.25;;
36827;SDS011;22766;48.042;11.192;2023-05-02T05:24:49;5.47;;;1.58;;
36827;SDS011;22766;48.042;11.192;2023-05-02T05:27:17;1.63;;;1.23;;
36827;SDS011;22766;48.042;11.192;2023-05-02T05:29:44;1.50;;;1.00;;
36827;SDS011;22766;48.042;11.192;2023-05-02T05:32:10;1.92;;;1.02;;
36827;SDS011;22766;48.042;11.192;2023-05-02T05:34:38;2.22;;;1.20;;
36827;SDS011;22766;48.042;11.192;2023-05-02T05:37:05;2.80;;;1.30;;
36827;SDS011;22766;48.042;11.192;2023-05-02T05:39:32;2.42;;;1.17;;
36827;SDS011;22766;48.042;11.192;2023-05-02T05:42:01;2.53;;;1.10;;
36827;SDS011;22766;48.042;11.192;2023-05-02T05:44:28;2.38;;;1.52;;
36827;SDS011;22766;48.042;11.192;2023-05-02T05:46:56;2.67;;;1.33;;
36827;SDS011;22766;48.042;11.192;2023-05-02T05:49:24;3.22;;;1.70;;
36827;SDS011;22766;48.042;11.192;2023-05-02T05:51:51;2.67;;;1.30;;
36827;SDS011;22766;48.042;11.192;2023-05-02T05:54:18;4.32;;;1.17;;
36827;SDS011;22766;48.042;11.192;2023-05-02T05:56:45;4.65;;;1.50;;
36827;SDS011;22766;48.042;11.192;2023-05-02T05:59:15;1.95;;;1.10;;
36827;SDS011;22766;48.042;11.192;2023-05-02T06:01:42;2.70;;;1.20;;
36827;SDS011;22766;48.042;11.192;2023-05-02T06:04:09;2.65;;;1.33;;
36827;SDS011;22766;48.042;11.192;2023-05-02T06:06:40;3.60;;;1.75;;
36827;SDS011;22766;48.042;11.192;2023-05-02T06:09:06;3.53;;;1.50;;
36827;SDS011;22766;48.042;11.192;2023-05-02T06:11:35;1.98;;;1.42;;
36827;SDS011;22766;48.042;11.192;2023-05-02T06:14:03;4.43;;;1.90;;
36827;SDS011;22766;48.042;11.192;2023-05-02T06:16:30;2.90;;;1.40;;
36827;SDS011;22766;48.042;11.192;2023-05-02T06:18:57;3.13;;;1.60;;
36827;SDS011;22766;48.042;11.192;2023-05-02T06:21:24;1.75;;;1.30;;
36827;SDS011;22766;48.042;11.192;2023-05-02T06:23:51;2.08;;;1.40;;
36827;SDS011;22766;48.042;11.192;2023-05-02T06:26:18;1.77;;;1.40;;
36827;SDS011;22766;48.042;11.192;2023-05-02T06:28:44;2.22;;;1.35;;
36827;SDS011;22766;48.042;11.192;2023-05-02T06:31:11;2.67;;;1.63;;
36827;SDS011;22766;48.042;11.192;2023-05-02T06:33:37;1.67;;;1.15;;
36827;SDS011;22766;48.042;11.192;2023-05-02T06:36:04;2.45;;;1.50;;
36827;SDS011;22766;48.042;11.192;2023-05-02T06:38:31;3.58;;;1.88;;
36827;SDS011;22766;48.042;11.192;2023-05-02T06:40:58;1.98;;;1.42;;
36827;SDS011;22766;48.042;11.192;2023-05-02T06:43:24;2.35;;;1.70;;
36827;SDS011;22766;48.042;11.192;2023-05-02T06:45:52;1.98;;;1.58;;
36827;SDS011;22766;48.042;11.192;2023-05-02T06:48:20;2.83;;;1.75;;
36827;SDS011;22766;48.042;11.192;2023-05-02T06:50:47;1.88;;;1.38;;
36827;SDS011;22766;48.042;11.192;2023-05-02T06:53:14;2.97;;;1.52;;
36827;SDS011;22766;48.042;11.192;2023-05-02T06:55:41;2.90;;;1.60;;
36827;SDS011;22766;48.042;11.192;2023-05-02T06:58:09;2.85;;;1.80;;
36827;SDS011;22766;48.042;11.192;2023-05-02T07:00:36;3.00;;;2.10;;
36827;SDS011;22766;48.042;11.192;2023-05-02T07:03:03;3.58;;;2.25;;
36827;SDS011;22766;48.042;11.192;2023-05-02T07:05:30;3.25;;;2.03;;
36827;SDS011;22766;48.042;11.192;2023-05-02T07:07:56;3.20;;;1.90;;
36827;SDS011;22766;48.042;11.192;2023-05-02T07:10:23;2.30;;;1.73;;
36827;SDS011;22766;48.042;11.192;2023-05-02T07:12:49;3.35;;;1.90;;
36827;SDS011;22766;48.042;11.192;2023-05-02T07:15:16;3.55;;;1.75;;
36827;SDS011;22766;48.042;11.192;2023-05-02T07:17:43;3.25;;;1.83;;
36827;SDS011;22766;48.042;11.192;2023-05-02T07:20:12;3.53;;;2.00;;
36827;SDS011;22766;48.042;11.192;2023-05-02T07:22:39;3.17;;;2.00;;
36827;SDS011;22766;48.042;11.192;2023-05-02T07:25:06;2.83;;;2.03;;
36827;SDS011;22766;48.042;11.192;2023-05-02T07:27:33;3.58;;;2.08;;
36827;SDS011;22766;48.042;11.192;2023-05-02T07:30:00;3.17;;;2.05;;
36827;SDS011;22766;48.042;11.192;2023-05-02T07:32:27;3.35;;;2.33;;
36827;SDS011;22766;48.042;11.192;2023-05-02T07:34:54;2.90;;;2.13;;
36827;SDS011;22766;48.042;11.192;2023-05-02T07:37:22;3.40;;;2.28;;
36827;SDS011;22766;48.042;11.192;2023-05-02T07:39:49;5.00;;;2.58;;
36827;SDS011;22766;48.042;11.192;2023-05-02T07:42:15;4.05;;;2.50;;
36827;SDS011;22766;48.042;11.192;2023-05-02T07:44:42;4.18;;;2.63;;
36827;SDS011;22766;48.042;11.192;2023-05-02T07:47:09;10.10;;;4.15;;
36827;SDS011;22766;48.042;11.192;2023-05-02T07:49:35;6.10;;;2.30;;
36827;SDS011;22766;48.042;11.192;2023-05-02T07:52:02;4.45;;;2.60;;
36827;SDS011;22766;48.042;11.192;2023-05-02T07:54:30;5.90;;;2.78;;
36827;SDS011;22766;48.042;11.192;2023-05-02T07:56:56;5.35;;;3.10;;
36827;SDS011;22766;48.042;11.192;2023-05-02T07:59:28;4.75;;;2.55;;
36827;SDS011;22766;48.042;11.192;2023-05-02T08:01:56;4.75;;;2.80;;
36827;SDS011;22766;48.042;11.192;2023-05-02T08:04:23;4.93;;;2.80;;
36827;SDS011;22766;48.042;11.192;2023-05-02T08:06:50;4.68;;;3.20;;
36827;SDS011;22766;48.042;11.192;2023-05-02T08:09:17;4.38;;;3.17;;
36827;SDS011;22766;48.042;11.192;2023-05-02T08:11:43;5.22;;;3.10;;
36827;SDS011;22766;48.042;11.192;2023-05-02T08:14:10;4.35;;;2.70;;
36827;SDS011;22766;48.042;11.192;2023-05-02T08:16:36;4.97;;;2.90;;
36827;SDS011;22766;48.042;11.192;2023-05-02T08:19:04;4.00;;;2.85;;
36827;SDS011;22766;48.042;11.192;2023-05-02T08:21:31;5.40;;;2.95;;
36827;SDS011;22766;48.042;11.192;2023-05-02T08:23:58;6.80;;;3.10;;
36827;SDS011;22766;48.042;11.192;2023-05-02T08:26:26;5.15;;;3.03;;
36827;SDS011;22766;48.042;11.192;2023-05-02T08:28:53;5.22;;;3.28;;
36827;SDS011;22766;48.042;11.192;2023-05-02T08:31:20;4.72;;;3.28;;
36827;SDS011;22766;48.042;11.192;2023-05-02T08:33:48;5.43;;;3.45;;
36827;SDS011;22766;48.042;11.192;2023-05-02T08:36:15;4.22;;;3.22;;
36827;SDS011;22766;48.042;11.192;2023-05-02T08:38:43;3.72;;;2.72;;
36827;SDS011;22766;48.042;11.192;2023-05-02T08:43:39;4.72;;;3.03;;
36827;SDS011;22766;48.042;11.192;2023-05-02T08:46:08;6.22;;;3.30;;
36827;SDS011;22766;48.042;11.192;2023-05-02T08:48:36;6.13;;;3.17;;
36827;SDS011;22766;48.042;11.192;2023-05-02T08:51:12;5.40;;;2.95;;
36827;SDS011;22766;48.042;11.192;2023-05-02T08:53:40;4.75;;;2.80;;
36827;SDS011;22766;48.042;11.192;2023-05-02T08:56:08;5.18;;;3.45;;
36827;SDS011;22766;48.042;11.192;2023-05-02T08:58:39;5.32;;;3.30;;
36827;SDS011;22766;48.042;11.192;2023-05-02T09:01:12;3.75;;;3.00;;
36827;SDS011;22766;48.042;11.192;2023-05-02T09:03:41;4.07;;;3.03;;
36827;SDS011;22766;48.042;11.192;2023-05-02T09:06:15;7.07;;;3.25;;
36827;SDS011;22766;48.042;11.192;2023-05-02T09:08:44;5.55;;;3.53;;
36827;SDS011;22766;48.042;11.192;2023-05-02T09:11:14;5.35;;;3.70;;
36827;SDS011;22766;48.042;11.192;2023-05-02T09:13:45;6.60;;;4.20;;
36827;SDS011;22766;48.042;11.192;2023-05-02T09:16:19;3.53;;;2.78;;
36827;SDS011;22766;48.042;11.192;2023-05-02T09:18:57;4.68;;;3.42;;
36827;SDS011;22766;48.042;11.192;2023-05-02T09:21:25;5.35;;;3.65;;
36827;SDS011;22766;48.042;11.192;2023-05-02T09:24:13;4.95;;;3.45;;
36827;SDS011;22766;48.042;11.192;2023-05-02T09:27:00;6.90;;;3.72;;
36827;SDS011;22766;48.042;11.192;2023-05-02T09:29:29;7.70;;;3.78;;
36827;SDS011;22766;48.042;11.192;2023-05-02T09:32:02;6.38;;;3.22;;
36827;SDS011;22766;48.042;11.192;2023-05-02T09:34:29;6.78;;;3.85;;
36827;SDS011;22766;48.042;11.192;2023-05-02T09:36:56;5.70;;;3.50;;
36827;SDS011;22766;48.042;11.192;2023-05-02T09:39:27;6.88;;;3.55;;
36827;SDS011;22766;48.042;11.192;2023-05-02T09:41:57;4.88;;;2.80;;
36827;SDS011;22766;48.042;11.192;2023-05-02T09:44:25;4.28;;;3.58;;
36827;SDS011;22766;48.042;11.192;2023-05-02T09:47:01;10.80;;;3.72;;
36827;SDS011;22766;48.042;11.192;2023-05-02T09:52:24;4.82;;;3.35;;
36827;SDS011;22766;48.042;11.192;2023-05-02T09:54:51;4.75;;;3.40;;
36827;SDS011;22766;48.042;11.192;2023-05-02T09:57:18;4.75;;;3.58;;
36827;SDS011;22766;48.042;11.192;2023-05-02T09:59:52;6.93;;;3.97;;
36827;SDS011;22766;48.042;11.192;2023-05-02T10:02:23;5.25;;;2.65;;
36827;SDS011;22766;48.042;11.192;2023-05-02T10:04:52;4.68;;;3.40;;
36827;SDS011;22766;48.042;11.192;2023-05-02T10:07:19;4.93;;;3.25;;
36827;SDS011;22766;48.042;11.192;2023-05-02T10:09:46;4.97;;;3.38;;
36827;SDS011;22766;48.042;11.192;2023-05-02T10:12:16;6.78;;;3.38;;
36827;SDS011;22766;48.042;11.192;2023-05-02T10:14:48;6.05;;;3.50;;
36827;SDS011;22766;48.042;11.192;2023-05-02T10:17:21;4.75;;;3.38;;
36827;SDS011;22766;48.042;11.192;2023-05-02T10:19:58;4.35;;;3.03;;
36827;SDS011;22766;48.042;11.192;2023-05-02T10:22:29;5.70;;;3.50;;
36827;SDS011;22766;48.042;11.192;2023-05-02T10:24:57;4.03;;;3.22;;
36827;SDS011;22766;48.042;11.192;2023-05-02T10:27:28;5.38;;;3.22;;
36827;SDS011;22766;48.042;11.192;2023-05-02T10:29:57;5.13;;;3.13;;
36827;SDS011;22766;48.042;11.192;2023-05-02T10:32:27;4.93;;;3.42;;
36827;SDS011;22766;48.042;11.192;2023-05-02T10:35:01;4.88;;;3.08;;
36827;SDS011;22766;48.042;11.192;2023-05-02T10:37:32;3.72;;;2.60;;
36827;SDS011;22766;48.042;11.192;2023-05-02T10:40:01;3.22;;;2.40;;
36827;SDS011;22766;48.042;11.192;2023-05-02T10:42:29;4.03;;;2.95;;
36827;SDS011;22766;48.042;11.192;2023-05-02T10:44:56;6.50;;;2.65;;
36827;SDS011;22766;48.042;11.192;2023-05-02T10:47:24;3.38;;;2.60;;
36827;SDS011;22766;48.042;11.192;2023-05-02T10:49:53;3.95;;;2.53;;
36827;SDS011;22766;48.042;11.192;2023-05-02T10:52:33;4.43;;;2.33;;
36827;SDS011;22766;48.042;11.192;2023-05-02T11:00:29;5.50;;;2.55;;
36827;SDS011;22766;48.042;11.192;2023-05-02T11:03:00;3.90;;;3.05;;
36827;SDS011;22766;48.042;11.192;2023-05-02T11:05:28;6.90;;;2.95;;
36827;SDS011;22766;48.042;11.192;2023-05-02T11:10:48;5.53;;;3.00;;
36827;SDS011;22766;48.042;11.192;2023-05-02T11:13:15;5.50;;;2.75;;
36827;SDS011;22766;48.042;11.192;2023-05-02T11:18:09;3.70;;;3.15;;
36827;SDS011;22766;48.042;11.192;2023-05-02T11:20:41;4.07;;;2.63;;
36827;SDS011;22766;48.042;11.192;2023-05-02T11:25:40;4.53;;;2.75;;
36827;SDS011;22766;48.042;11.192;2023-05-02T11:31:05;5.85;;;3.60;;
36827;SDS011;22766;48.042;11.192;2023-05-02T11:33:59;4.63;;;3.30;;
36827;SDS011;22766;48.042;11.192;2023-05-02T11:38:59;5.28;;;2.92;;
36827;SDS011;22766;48.042;11.192;2023-05-02T11:41:40;4.72;;;3.13;;
36827;SDS011;22766;48.042;11.192;2023-05-02T11:44:07;5.53;;;3.13;;
36827;SDS011;22766;48.042;11.192;2023-05-02T11:46:37;5.47;;;3.10;;
36827;SDS011;22766;48.042;11.192;2023-05-02T11:49:05;4.10;;;2.85;;
36827;SDS011;22766;48.042;11.192;2023-05-02T11:51:35;3.78;;;3.03;;
36827;SDS011;22766;48.042;11.192;2023-05-02T11:54:02;4.18;;;3.42;;
36827;SDS011;22766;48.042;11.192;2023-05-02T11:56:29;4.80;;;2.90;;
36827;SDS011;22766;48.042;11.192;2023-05-02T11:58:57;4.15;;;2.33;;
36827;SDS011;22766;48.042;11.192;2023-05-02T12:01:27;6.68;;;3.45;;
36827;SDS011;22766;48.042;11.192;2023-05-02T12:04:01;4.60;;;2.97;;
36827;SDS011;22766;48.042;11.192;2023-05-02T12:06:29;5.43;;;2.90;;
36827;SDS011;22766;48.042;11.192;2023-05-02T12:09:08;4.05;;;2.72;;
36827;SDS011;22766;48.042;11.192;2023-05-02T12:11:36;6.07;;;2.92;;
36827;SDS011;22766;48.042;11.192;2023-05-02T12:14:04;5.93;;;3.17;;
36827;SDS011;22766;48.042;11.192;2023-05-02T12:16:32;5.10;;;3.45;;
36827;SDS011;22766;48.042;11.192;2023-05-02T12:18:59;4.85;;;3.33;;
36827;SDS011;22766;48.042;11.192;2023-05-02T12:21:29;6.22;;;3.40;;
36827;SDS011;22766;48.042;11.192;2023-05-02T12:23:59;4.47;;;3.38;;
36827;SDS011;22766;48.042;11.192;2023-05-02T12:26:27;3.85;;;2.78;;
36827;SDS011;22766;48.042;11.192;2023-05-02T12:28:58;4.78;;;2.97;;
36827;SDS011;22766;48.042;11.192;2023-05-02T12:31:26;4.03;;;2.40;;
36827;SDS011;22766;48.042;11.192;2023-05-02T12:33:54;7.30;;;3.25;;
36827;SDS011;22766;48.042;11.192;2023-05-02T12:36:23;3.53;;;2.63;;
36827;SDS011;22766;48.042;11.192;2023-05-02T12:38:53;4.85;;;2.30;;
36827;SDS011;22766;48.042;11.192;2023-05-02T12:41:31;4.85;;;3.35;;
36827;SDS011;22766;48.042;11.192;2023-05-02T12:43:59;3.78;;;2.60;;
36827;SDS011;22766;48.042;11.192;2023-05-02T12:46:26;6.50;;;3.15;;
36827;SDS011;22766;48.042;11.192;2023-05-02T12:49:00;4.63;;;2.50;;
36827;SDS011;22766;48.042;11.192;2023-05-02T12:51:34;4.13;;;2.38;;
36827;SDS011;22766;48.042;11.192;2023-05-02T12:54:02;3.38;;;2.35;;
36827;SDS011;22766;48.042;11.192;2023-05-02T12:56:29;4.90;;;1.75;;
36827;SDS011;22766;48.042;11.192;2023-05-02T12:59:04;6.20;;;2.53;;
36827;SDS011;22766;48.042;11.192;2023-05-02T13:01:32;3.08;;;1.88;;
36827;SDS011;22766;48.042;11.192;2023-05-02T13:03:59;3.30;;;1.77;;
36827;SDS011;22766;48.042;11.192;2023-05-02T13:06:26;4.40;;;1.85;;
36827;SDS011;22766;48.042;11.192;2023-05-02T13:08:53;4.40;;;2.03;;
36827;SDS011;22766;48.042;11.192;2023-05-02T13:11:19;4.30;;;2.13;;
36827;SDS011;22766;48.042;11.192;2023-05-02T13:13:46;3.72;;;1.60;;
36827;SDS011;22766;48.042;11.192;2023-05-02T13:16:13;3.60;;;1.88;;
36827;SDS011;22766;48.042;11.192;2023-05-02T13:18:40;3.80;;;1.65;;
36827;SDS011;22766;48.042;11.192;2023-05-02T13:21:06;4.32;;;2.28;;
36827;SDS011;22766;48.042;11.192;2023-05-02T13:23:33;4.57;;;1.98;;
36827;SDS011;22766;48.042;11.192;2023-05-02T13:26:00;5.20;;;2.20;;
36827;SDS011;22766;48.042;11.192;2023-05-02T13:28:26;3.25;;;1.73;;
36827;SDS011;22766;48.042;11.192;2023-05-02T13:30:55;5.28;;;1.80;;
36827;SDS011;22766;48.042;11.192;2023-05-02T13:33:22;3.60;;;2.03;;
36827;SDS011;22766;48.042;11.192;2023-05-02T13:35:49;2.55;;;1.65;;
36827;SDS011;22766;48.042;11.192;2023-05-02T13:38:15;2.80;;;1.60;;
36827;SDS011;22766;48.042;11.192;2023-05-02T13:40:42;3.17;;;1.73;;
36827;SDS011;22766;48.042;11.192;2023-05-02T13:43:09;2.90;;;2.13;;
36827;SDS011;22766;48.042;11.192;2023-05-02T13:45:36;4.32;;;2.20;;
36827;SDS011;22766;48.042;11.192;2023-05-02T13:48:02;3.92;;;2.08;;
36827;SDS011;22766;48.042;11.192;2023-05-02T13:50:29;3.30;;;1.83;;
36827;SDS011;22766;48.042;11.192;2023-05-02T13:52:56;4.38;;;1.92;;
36827;SDS011;22766;48.042;11.192;2023-05-02T13:55:22;4.45;;;2.17;;
36827;SDS011;22766;48.042;11.192;2023-05-02T13:57:49;3.25;;;2.10;;
36827;SDS011;22766;48.042;11.192;2023-05-02T14:00:16;4.03;;;2.00;;
36827;SDS011;22766;48.042;11.192;2023-05-02T14:02:43;2.75;;;2.10;;
36827;SDS011;22766;48.042;11.192;2023-05-02T14:05:13;6.55;;;2.08;;
36827;SDS011;22766;48.042;11.192;2023-05-02T14:07:40;3.10;;;2.15;;
36827;SDS011;22766;48.042;11.192;2023-05-02T14:10:07;4.00;;;2.40;;
36827;SDS011;22766;48.042;11.192;2023-05-02T14:12:34;3.25;;;1.60;;
36827;SDS011;22766;48.042;11.192;2023-05-02T14:15:01;2.58;;;1.35;;
36827;SDS011;22766;48.042;11.192;2023-05-02T14:17:28;6.97;;;2.28;;
36827;SDS011;22766;48.042;11.192;2023-05-02T14:19:54;3.08;;;1.92;;
36827;SDS011;22766;48.042;11.192;2023-05-02T14:22:21;2.13;;;1.77;;
36827;SDS011;22766;48.042;11.192;2023-05-02T14:24:48;3.63;;;1.90;;
36827;SDS011;22766;48.042;11.192;2023-05-02T14:27:14;2.58;;;1.75;;
36827;SDS011;22766;48.042;11.192;2023-05-02T14:29:44;2.95;;;1.90;;
36827;SDS011;22766;48.042;11.192;2023-05-02T14:32:11;3.40;;;2.20;;
36827;SDS011;22766;48.042;11.192;2023-05-02T14:34:39;4.57;;;2.10;;
36827;SDS011;22766;48.042;11.192;2023-05-02T14:37:06;3.65;;;2.20;;
36827;SDS011;22766;48.042;11.192;2023-05-02T14:39:34;3.33;;;1.90;;
36827;SDS011;22766;48.042;11.192;2023-05-02T14:42:02;3.03;;;2.28;;
36827;SDS011;22766;48.042;11.192;2023-05-02T14:44:29;2.78;;;1.80;;
36827;SDS011;22766;48.042;11.192;2023-05-02T14:46:56;4.47;;;2.58;;
36827;SDS011;22766;48.042;11.192;2023-05-02T14:49:23;6.90;;;2.50;;
36827;SDS011;22766;48.042;11.192;2023-05-02T14:51:51;6.07;;;2.35;;
36827;SDS011;22766;48.042;11.192;2023-05-02T14:54:18;6.20;;;2.30;;
36827;SDS011;22766;48.042;11.192;2023-05-02T14:56:45;7.05;;;2.70;;
36827;SDS011;22766;48.042;11.192;2023-05-02T14:59:13;2.78;;;1.95;;
36827;SDS011;22766;48.042;11.192;2023-05-02T15:01:40;3.15;;;1.80;;
36827;SDS011;22766;48.042;11.192;2023-05-02T15:04:07;6.95;;;2.00;;
36827;SDS011;22766;48.042;11.192;2023-05-02T15:06:34;4.88;;;1.83;;
36827;SDS011;22766;48.042;11.192;2023-05-02T15:09:02;2.45;;;1.75;;
36827;SDS011;22766;48.042;11.192;2023-05-02T15:11:30;3.95;;;1.63;;
36827;SDS011;22766;48.042;11.192;2023-05-02T15:13:57;3.17;;;2.05;;
36827;SDS011;22766;48.042;11.192;2023-05-02T15:16:25;3.20;;;2.45;;
36827;SDS011;22766;48.042;11.192;2023-05-02T15:18:54;3.65;;;2.60;;
36827;SDS011;22766;48.042;11.192;2023-05-02T15:21:21;4.47;;;2.25;;
36827;SDS011;22766;48.042;11.192;2023-05-02T15:23:48;6.03;;;2.65;;
36827;SDS011;22766;48.042;11.192;2023-05-02T15:26:14;3.65;;;2.85;;
36827;SDS011;22766;48.042;11.192;2023-05-02T15:28:41;5.80;;;2.47;;